Canefield Airport

Cloudy with light rain and slight haze
26oC (79oF)

Cloudy with light rain and slight haze


Winds: Easterly @ 06kts / 11km/h

Humidity: 82%

Barometric Pressure: 1013 mb

Accumulated Rainfall for February: 60.6 mm

Updated: 16:00 local time (20:00 UTC)

Douglas-Charles Airport

Cloudy with slight haze and gusty winds
25oC (77oF)

Cloudy with slight haze and gusty winds


Winds: East south easterly @ 08kts / 15km/h gusting @ 21kts / 39km/h

Humidity: 76%

Barometric Pressure: 1017 mb

Accumulated Rainfall for February: 69.8 mm

Updated: 20:00 local time (00:00 UTC)

Satellite Imagery

Satellite Imagery
Click image for larger view. (Source: National Hurricane Center).

Aviation Routine Report (METAR)

Douglas-Charles: METAR TDPD 180000Z 12008G21KT 9999 BKN014 25/21 Q1017=
Canefield: METAR TDCF 172000Z 09006KT 9999 -RA BKN016 BKN038 26/23 Q1013=